Time;durP1;ratioP1;P1;durP2;ratioP2;P2;SDS_P1;SDS_P2;PMS_P1;PMS_P2;Temp;Humidity;BMP_temperature;BMP_pressure;BME280_temperature;BME280_humidity;BME280_pressure;Samples;Min_cycle;Max_cycle;Signal;HPM_P1;HPM_P2
2020/12/14 00:06:17;;;;;;;;;;;8.20;82.50;;;;;;4848876;29;117888;-82
2020/12/14 00:08:51;;;;;;;;;;;8.20;82.50;;;;;;4861709;28;117784;-82
2020/12/14 00:11:52;;;;;;;;;;;8.20;82.40;;;;;;4848020;28;118208;-82
2020/12/14 00:23:34;;;;;;;;;;;8.20;82.40;;;;;;4849763;28;118757;-82
2020/12/14 00:26:42;;;;;;;;;;;;;;;;;;;;;
2020/12/14 00:30:22;;;;;;;;;;;8.20;82.50;;;;;;4790775;29;146369;-82
2020/12/14 00:36:11;;;;;;;;;;;8.20;82.30;;;;;;4833887;29;117553;-82
2020/12/14 00:42:28;;;;;;;;;;;;;;;;;;;;;
2020/12/14 00:45:20;;;;;;;;;;;8.20;82.20;;;;;;4799165;29;121301;-82
2020/12/14 00:55:19;;;;;;;;;;;;;;;;;;;;;
2020/12/14 01:00:35;;;;;;;;;;;8.20;82.00;;;;;;5007272;22;117580;-90
2020/12/14 01:03:01;;;;;;;;;;;8.20;82.10;;;;;;4973435;28;121343;-90
2020/12/14 01:05:26;;;;;;;;;;;8.10;82.00;;;;;;4969694;28;118989;-90
2020/12/14 01:07:52;;;;;;;;;;;8.10;82.00;;;;;;4955023;28;117549;-90
2020/12/14 01:10:17;;;;;;;;;;;8.10;82.00;;;;;;4955105;28;117638;-91
2020/12/14 01:12:43;;;;;;;;;;;8.20;82.10;;;;;;4954062;28;120348;-91
2020/12/14 01:15:08;;;;;;;;;;;8.10;82.00;;;;;;4954024;28;119511;-91
2020/12/14 01:17:34;;;;;;;;;;;8.20;82.00;;;;;;4956825;28;117528;-91
2020/12/14 01:19:59;;;;;;;;;;;8.10;81.90;;;;;;4954824;28;117489;-91
2020/12/14 01:22:25;;;;;;;;;;;8.10;81.90;;;;;;4970659;28;117615;-91
2020/12/14 01:24:50;;;;;;;;;;;8.20;82.00;;;;;;4953697;28;119639;-91
2020/12/14 01:27:16;;;;;;;;;;;8.10;81.90;;;;;;4954344;28;117651;-91
2020/12/14 01:29:42;;;;;;;;;;;8.10;81.80;;;;;;4954934;28;117861;-90
2020/12/14 01:32:07;;;;;;;;;;;8.10;81.90;;;;;;4953315;28;119630;-91
2020/12/14 01:34:33;;;;;;;;;;;8.10;81.80;;;;;;4953086;28;119215;-90
2020/12/14 01:36:58;;;;;;;;;;;8.10;81.90;;;;;;4953790;28;117373;-91
2020/12/14 01:39:24;;;;;;;;;;;8.10;81.80;;;;;;4970686;28;117747;-91
2020/12/14 01:41:49;;;;;;;;;;;8.10;81.80;;;;;;4952898;28;119843;-91
2020/12/14 01:44:15;;;;;;;;;;;8.10;81.70;;;;;;4952146;28;120235;-91
2020/12/14 01:46:44;;;;;;;;;;;8.10;81.80;;;;;;4952743;28;117454;-91
2020/12/14 01:49:09;;;;;;;;;;;8.10;81.80;;;;;;4969775;28;117727;-91
2020/12/14 01:51:35;;;;;;;;;;;8.10;81.70;;;;;;4952249;28;120388;-90
2020/12/14 01:54:02;;;;;;;;;;;8.10;81.70;;;;;;4952274;28;118975;-90
2020/12/14 01:56:28;;;;;;;;;;;8.10;81.70;;;;;;4969340;28;117401;-90
2020/12/14 01:58:53;;;;;;;;;;;8.10;81.70;;;;;;4952971;28;117325;-90
2020/12/14 02:01:19;;;;;;;;;;;8.10;81.70;;;;;;4952479;28;119418;-91
2020/12/14 02:03:44;;;;;;;;;;;8.10;81.70;;;;;;4952482;28;119420;-90
2020/12/14 02:06:10;;;;;;;;;;;8.10;81.70;;;;;;4969654;28;117729;-91
2020/12/14 02:08:36;;;;;;;;;;;8.10;81.70;;;;;;4952894;28;117382;-91
2020/12/14 02:11:01;;;;;;;;;;;8.10;81.70;;;;;;4952094;28;120307;-90
2020/12/14 02:13:27;;;;;;;;;;;8.10;81.60;;;;;;4968980;28;117786;-90
2020/12/14 02:15:52;;;;;;;;;;;8.10;81.60;;;;;;4953074;28;117550;-90
2020/12/14 02:18:18;;;;;;;;;;;8.10;81.60;;;;;;4953725;28;117720;-91
2020/12/14 02:20:43;;;;;;;;;;;8.10;81.50;;;;;;4952780;28;119762;-90
2020/12/14 02:23:09;;;;;;;;;;;8.10;81.60;;;;;;4952298;28;119034;-90
2020/12/14 02:25:34;;;;;;;;;;;8.10;81.50;;;;;;4953786;28;117780;-90
2020/12/14 02:28:00;;;;;;;;;;;8.10;81.50;;;;;;4953916;28;117902;-90
2020/12/14 02:30:25;;;;;;;;;;;8.10;81.50;;;;;;4952572;28;121078;-90
2020/12/14 02:32:51;;;;;;;;;;;8.10;81.50;;;;;;4952304;28;119298;-90
2020/12/14 02:35:16;;;;;;;;;;;8.10;81.40;;;;;;4953170;28;117509;-90
2020/12/14 02:37:42;;;;;;;;;;;8.10;81.40;;;;;;4953691;28;117546;-90
2020/12/14 02:40:07;;;;;;;;;;;8.10;81.50;;;;;;4968903;28;118622;-90
2020/12/14 02:42:33;;;;;;;;;;;8.10;81.40;;;;;;4951889;28;119368;-90
2020/12/14 02:44:58;;;;;;;;;;;8.10;81.50;;;;;;4952633;28;117302;-90
2020/12/14 02:47:24;;;;;;;;;;;8.10;81.40;;;;;;4953144;28;117380;-90
2020/12/14 02:49:49;;;;;;;;;;;8.10;81.30;;;;;;4951948;28;120297;-91
2020/12/14 02:52:15;;;;;;;;;;;8.10;81.30;;;;;;4951974;28;119466;-90
2020/12/14 02:54:41;;;;;;;;;;;8.10;81.40;;;;;;4968911;28;117643;-90
2020/12/14 02:57:06;;;;;;;;;;;8.10;81.30;;;;;;4967807;28;117314;-90
2020/12/14 02:59:32;;;;;;;;;;;8.10;81.30;;;;;;4951145;28;119487;-90
2020/12/14 03:01:57;;;;;;;;;;;8.10;81.30;;;;;;4951171;28;119549;-90
2020/12/14 03:04:23;;;;;;;;;;;8.00;81.30;;;;;;4952106;28;117534;-91
2020/12/14 03:06:49;;;;;;;;;;;8.10;81.30;;;;;;4951772;28;117873;-90
2020/12/14 03:09:14;;;;;;;;;;;8.00;81.20;;;;;;4951034;28;120774;-90
2020/12/14 03:11:40;;;;;;;;;;;8.10;81.30;;;;;;4951262;28;118971;-91
2020/12/14 03:14:06;;;;;;;;;;;8.00;81.20;;;;;;4952063;28;117611;-90
2020/12/14 03:16:31;;;;;;;;;;;8.10;81.20;;;;;;4968579;28;117773;-90
2020/12/14 03:18:57;;;;;;;;;;;8.00;81.20;;;;;;4967536;28;120062;-90
2020/12/14 03:21:22;;;;;;;;;;;8.00;81.20;;;;;;4950396;28;120427;-90
2020/12/14 03:23:48;;;;;;;;;;;8.00;81.10;;;;;;4952181;28;117467;-90
2020/12/14 03:26:14;;;;;;;;;;;8.00;81.10;;;;;;4952330;28;117881;-91
2020/12/14 03:28:40;;;;;;;;;;;8.00;81.10;;;;;;4951100;28;121604;-90
2020/12/14 03:31:05;;;;;;;;;;;8.00;81.10;;;;;;4951372;28;119601;-90
2020/12/14 03:33:32;;;;;;;;;;;8.00;81.10;;;;;;4952841;28;117372;-91
2020/12/14 03:35:58;;;;;;;;;;;8.10;81.00;;;;;;4969632;28;117784;-91
2020/12/14 03:38:23;;;;;;;;;;;8.00;81.00;;;;;;4968744;28;118482;-91
2020/12/14 03:40:49;;;;;;;;;;;8.00;81.00;;;;;;4952019;28;120788;-91
2020/12/14 03:43:14;;;;;;;;;;;8.00;81.00;;;;;;4952857;28;117462;-90
2020/12/14 03:45:40;;;;;;;;;;;8.00;80.90;;;;;;4952761;28;117790;-90
2020/12/14 03:48:05;;;;;;;;;;;8.00;81.00;;;;;;4952249;28;120297;-90
2020/12/14 03:50:31;;;;;;;;;;;8.00;80.90;;;;;;4968508;28;117472;-90
2020/12/14 03:52:57;;;;;;;;;;;8.00;80.90;;;;;;4952509;28;117065;-90
2020/12/14 03:55:22;;;;;;;;;;;8.00;80.90;;;;;;4952535;28;117503;-90
2020/12/14 03:57:47;;;;;;;;;;;8.00;80.90;;;;;;4951418;28;119821;-90
2020/12/14 04:00:13;;;;;;;;;;;8.00;80.90;;;;;;4950806;28;120716;-90
2020/12/14 04:02:39;;;;;;;;;;;8.00;80.90;;;;;;4952087;28;117477;-90
2020/12/14 04:05:04;;;;;;;;;;;8.00;80.80;;;;;;4951844;28;117703;-90
2020/12/14 04:07:30;;;;;;;;;;;8.00;80.90;;;;;;4950725;28;120126;-90
2020/12/14 04:09:55;;;;;;;;;;;8.00;80.80;;;;;;4951389;28;119205;-90
2020/12/14 04:12:21;;;;;;;;;;;8.00;80.80;;;;;;4954875;28;117534;-90
2020/12/14 04:14:46;;;;;;;;;;;8.00;80.80;;;;;;4954836;28;117872;-90
2020/12/14 04:17:12;;;;;;;;;;;8.00;80.80;;;;;;4953523;28;122081;-90
2020/12/14 04:19:37;;;;;;;;;;;8.00;80.80;;;;;;4953952;28;120413;-90
2020/12/14 04:22:07;;;;;;;;;;;8.00;80.70;;;;;;4954338;28;117528;-90
2020/12/14 04:24:36;;;;;;;;;;;8.00;80.80;;;;;;4955490;28;117365;-90
2020/12/14 04:27:04;;;;;;;;;;;8.00;80.70;;;;;;4953549;28;121568;-90
2020/12/14 04:29:30;;;;;;;;;;;8.00;80.80;;;;;;4953475;28;120506;-90
2020/12/14 04:31:55;;;;;;;;;;;8.00;80.70;;;;;;4954495;28;117496;-90
2020/12/14 04:34:21;;;;;;;;;;;8.00;80.70;;;;;;4954148;28;117566;-90
2020/12/14 04:36:47;;;;;;;;;;;8.00;80.70;;;;;;4953472;28;120126;-90
2020/12/14 04:39:12;;;;;;;;;;;8.00;80.70;;;;;;4953637;28;120114;-90
2020/12/14 04:41:38;;;;;;;;;;;8.00;80.60;;;;;;4971147;28;117458;-90
2020/12/14 04:44:04;;;;;;;;;;;8.00;80.70;;;;;;4971171;28;117655;-90
2020/12/14 04:46:29;;;;;;;;;;;8.00;80.60;;;;;;4953616;28;120644;-90
2020/12/14 04:48:55;;;;;;;;;;;8.00;80.60;;;;;;4953815;28;120415;-90
2020/12/14 04:51:20;;;;;;;;;;;8.00;80.70;;;;;;4954804;28;117323;-90
2020/12/14 04:53:46;;;;;;;;;;;7.90;80.50;;;;;;4954890;28;117876;-91
2020/12/14 04:56:14;;;;;;;;;;;7.90;80.50;;;;;;4953709;28;119845;-91
2020/12/14 04:58:39;;;;;;;;;;;8.00;80.60;;;;;;4969448;28;121892;-91
2020/12/14 05:01:05;;;;;;;;;;;7.90;80.40;;;;;;4971912;28;117483;-90
2020/12/14 05:03:30;;;;;;;;;;;7.90;80.50;;;;;;4955534;28;117869;-91
2020/12/14 05:05:56;;;;;;;;;;;8.00;80.50;;;;;;4953745;28;120731;-90
2020/12/14 05:08:27;;;;;;;;;;;8.00;80.40;;;;;;4953815;28;119385;-90
2020/12/14 05:10:53;;;;;;;;;;;8.00;80.50;;;;;;4954592;28;117472;-90
2020/12/14 05:13:19;;;;;;;;;;;7.90;80.50;;;;;;4971146;28;117428;-91
2020/12/14 05:15:44;;;;;;;;;;;8.00;80.40;;;;;;4953287;28;120696;-90
2020/12/14 05:18:11;;;;;;;;;;;7.90;80.40;;;;;;4969839;28;117704;-91
2020/12/14 05:20:36;;;;;;;;;;;8.00;80.40;;;;;;4969759;28;117452;-91
2020/12/14 05:23:11;;;;;;;;;;;7.90;80.30;;;;;;4953902;28;117460;-90
2020/12/14 05:25:37;;;;;;;;;;;7.90;80.30;;;;;;4952989;28;120301;-90
2020/12/14 05:28:05;;;;;;;;;;;7.90;80.20;;;;;;4952855;28;119062;-90
2020/12/14 05:30:40;;;;;;;;;;;7.90;80.30;;;;;;4970252;28;117545;-91
2020/12/14 05:33:07;;;;;;;;;;;7.90;80.30;;;;;;4970560;28;118268;-90
2020/12/14 05:35:33;;;;;;;;;;;7.90;80.40;;;;;;4952521;28;121250;-90
2020/12/14 05:38:08;;;;;;;;;;;7.90;80.30;;;;;;4968713;28;119310;-90
2020/12/14 05:40:33;;;;;;;;;;;7.90;80.20;;;;;;4969803;28;117484;-90
2020/12/14 05:42:59;;;;;;;;;;;7.90;80.20;;;;;;4970137;28;117825;-90
2020/12/14 05:45:25;;;;;;;;;;;7.90;80.20;;;;;;4952053;28;120921;-90
2020/12/14 05:47:51;;;;;;;;;;;7.90;80.20;;;;;;4951866;28;121371;-90
2020/12/14 05:50:16;;;;;;;;;;;7.90;80.20;;;;;;4953556;28;117353;-90
2020/12/14 05:52:46;;;;;;;;;;;7.90;80.10;;;;;;4953684;28;117849;-90
2020/12/14 05:55:12;;;;;;;;;;;7.90;80.10;;;;;;4968993;28;120222;-90
2020/12/14 05:57:37;;;;;;;;;;;7.90;80.10;;;;;;4952720;28;119337;-91
2020/12/14 06:00:04;;;;;;;;;;;7.90;80.10;;;;;;4953382;28;117359;-90
2020/12/14 06:02:30;;;;;;;;;;;7.90;80.10;;;;;;4970237;28;117784;-91
2020/12/14 06:04:56;;;;;;;;;;;7.90;80.10;;;;;;4952710;28;121240;-90
2020/12/14 06:07:25;;;;;;;;;;;7.90;80.00;;;;;;4969200;28;117730;-90
2020/12/14 06:10:10;;;;;;;;;;;7.90;80.00;;;;;;4969945;28;117385;-90
2020/12/14 06:12:37;;;;;;;;;;;7.90;80.70;;;;;;4969731;28;117392;-91
2020/12/14 06:15:06;;;;;;;;;;;7.90;80.00;;;;;;4968868;28;120090;-91
2020/12/14 06:17:32;;;;;;;;;;;7.90;80.00;;;;;;4969341;28;120691;-91
2020/12/14 06:20:05;;;;;;;;;;;7.80;79.80;;;;;;4953810;28;117626;-91
2020/12/14 06:22:31;;;;;;;;;;;7.90;80.00;;;;;;4970087;28;117562;-91
2020/12/14 06:24:57;;;;;;;;;;;7.90;79.90;;;;;;4952176;28;120890;-90
2020/12/14 06:27:24;;;;;;;;;;;7.80;79.80;;;;;;4968794;28;117759;-91
2020/12/14 06:29:49;;;;;;;;;;;7.80;79.80;;;;;;4969595;28;117569;-90
2020/12/14 06:32:35;;;;;;;;;;;7.90;79.90;;;;;;4952288;28;117936;-90
2020/12/14 06:35:01;;;;;;;;;;;7.80;79.80;;;;;;4967682;28;120346;-90
2020/12/14 06:37:45;;;;;;;;;;;7.80;79.70;;;;;;4951444;28;119355;-90
2020/12/14 06:40:10;;;;;;;;;;;7.90;79.80;;;;;;4968879;28;117612;-90
2020/12/14 06:42:36;;;;;;;;;;;7.80;79.70;;;;;;4953079;28;116912;-90
2020/12/14 06:45:03;;;;;;;;;;;7.90;79.70;;;;;;4967493;28;120887;-90
2020/12/14 06:47:38;;;;;;;;;;;7.90;79.70;;;;;;4967983;28;119221;-91
2020/12/14 06:50:23;;;;;;;;;;;7.80;79.70;;;;;;4968613;28;116776;-91
2020/12/14 06:52:48;;;;;;;;;;;7.80;79.70;;;;;;4968935;28;117487;-90
2020/12/14 06:55:14;;;;;;;;;;;7.80;79.70;;;;;;4951172;28;120195;-90
2020/12/14 06:57:40;;;;;;;;;;;7.80;79.60;;;;;;4951380;28;119280;-90
2020/12/14 07:00:06;;;;;;;;;;;7.80;79.70;;;;;;4951487;28;117615;-90
2020/12/14 07:02:35;;;;;;;;;;;7.80;79.50;;;;;;4968115;28;117451;-90
2020/12/14 07:05:02;;;;;;;;;;;7.80;79.50;;;;;;4967639;28;120084;-90
2020/12/14 07:07:27;;;;;;;;;;;7.80;79.50;;;;;;4951223;28;119342;-90
2020/12/14 07:09:54;;;;;;;;;;;7.80;79.50;;;;;;4968813;28;117557;-90
2020/12/14 07:12:23;;;;;;;;;;;7.80;79.40;;;;;;4968670;28;117528;-90
2020/12/14 07:14:49;;;;;;;;;;;7.80;79.40;;;;;;4967302;28;120018;-89
2020/12/14 07:17:18;;;;;;;;;;;7.80;79.40;;;;;;4968024;28;119935;-90
2020/12/14 07:19:47;;;;;;;;;;;7.80;79.40;;;;;;4968823;28;117616;-90
2020/12/14 07:22:17;;;;;;;;;;;7.80;79.40;;;;;;4969508;28;117438;-90
2020/12/14 07:24:42;;;;;;;;;;;7.80;79.40;;;;;;4967735;28;121739;-90
2020/12/14 07:27:08;;;;;;;;;;;7.80;79.40;;;;;;4951295;28;119210;-90
2020/12/14 07:29:33;;;;;;;;;;;7.80;79.90;;;;;;4969013;28;117801;-90
2020/12/14 07:32:02;;;;;;;;;;;7.80;79.30;;;;;;4953153;28;117602;-90
2020/12/14 07:34:28;;;;;;;;;;;7.80;79.30;;;;;;4968093;28;120586;-90
2020/12/14 07:36:53;;;;;;;;;;;7.80;79.30;;;;;;4951269;28;120069;-90
2020/12/14 07:39:19;;;;;;;;;;;7.80;79.30;;;;;;4952029;28;117513;-89
2020/12/14 07:41:45;;;;;;;;;;;7.80;79.30;;;;;;4968934;28;117227;-90
2020/12/14 07:44:10;;;;;;;;;;;7.80;79.30;;;;;;4967377;28;120295;-90
2020/12/14 07:46:36;;;;;;;;;;;7.80;79.30;;;;;;4950858;28;120622;-90
2020/12/14 07:49:11;;;;;;;;;;;7.80;79.30;;;;;;4951916;28;117287;-90
2020/12/14 07:51:38;;;;;;;;;;;7.80;79.30;;;;;;4967743;28;117703;-90
2020/12/14 07:54:06;;;;;;;;;;;7.80;79.40;;;;;;4966859;28;120334;-89
2020/12/14 07:56:38;;;;;;;;;;;7.80;79.30;;;;;;4984844;28;117764;-90
2020/12/14 07:59:04;;;;;;;;;;;7.80;80.00;;;;;;4967503;28;117698;-90
2020/12/14 08:01:29;;;;;;;;;;;7.80;79.30;;;;;;4951564;28;117464;-90
2020/12/14 08:03:59;;;;;;;;;;;7.80;79.30;;;;;;4950246;28;119888;-90
2020/12/14 08:06:25;;;;;;;;;;;7.80;79.40;;;;;;4966410;28;120635;-90
2020/12/14 08:08:50;;;;;;;;;;;7.80;79.30;;;;;;4951340;28;117339;-90
2020/12/14 08:11:16;;;;;;;;;;;7.80;79.30;;;;;;4968321;28;117349;-90
2020/12/14 08:13:42;;;;;;;;;;;7.80;79.30;;;;;;4966726;28;121236;-90
2020/12/14 08:16:08;;;;;;;;;;;7.80;79.40;;;;;;4949625;28;119772;-90
2020/12/14 08:18:34;;;;;;;;;;;7.80;79.30;;;;;;4951125;28;117582;-90
2020/12/14 08:21:00;;;;;;;;;;;7.80;79.40;;;;;;4951773;28;117492;-90
2020/12/14 08:23:26;;;;;;;;;;;7.70;79.30;;;;;;4966766;28;121152;-90
2020/12/14 08:25:52;;;;;;;;;;;7.70;79.30;;;;;;4950228;28;120003;-90
2020/12/14 08:28:39;;;;;;;;;;;7.70;79.30;;;;;;4967738;28;117638;-90
2020/12/14 08:31:04;;;;;;;;;;;7.80;79.40;;;;;;4968008;28;117297;-90
2020/12/14 08:33:30;;;;;;;;;;;7.70;79.30;;;;;;4967223;28;117357;-90
2020/12/14 08:35:56;;;;;;;;;;;7.70;79.30;;;;;;4950539;28;120644;-90
2020/12/14 08:38:22;;;;;;;;;;;7.70;79.30;;;;;;4951513;28;117290;-90
2020/12/14 08:40:58;;;;;;;;;;;7.70;79.40;;;;;;4967659;28;117309;-90
2020/12/14 08:43:24;;;;;;;;;;;7.70;79.30;;;;;;4966743;28;121446;-90
2020/12/14 08:46:00;;;;;;;;;;;7.70;79.30;;;;;;4967108;28;120624;-90
2020/12/14 08:48:26;;;;;;;;;;;7.70;79.30;;;;;;4968663;28;117453;-89
2020/12/14 08:51:12;;;;;;;;;;;7.70;79.40;;;;;;4968476;28;117508;-88
2020/12/14 08:53:38;;;;;;;;;;;7.80;79.40;;;;;;4982893;28;121132;-88
2020/12/14 08:56:05;;;;;;;;;;;7.70;79.30;;;;;;4967990;28;119181;-87
2020/12/14 08:58:30;;;;;;;;;;;7.70;79.30;;;;;;4970781;28;117317;-88
2020/12/14 09:00:56;;;;;;;;;;;7.70;79.40;;;;;;4971354;28;117595;-88
2020/12/14 09:03:21;;;;;;;;;;;7.70;79.40;;;;;;4953609;28;121315;-88
2020/12/14 09:05:47;;;;;;;;;;;7.70;79.40;;;;;;4952754;28;119846;-88
2020/12/14 09:08:16;;;;;;;;;;;7.70;79.40;;;;;;4954014;28;117296;-88
2020/12/14 09:10:42;;;;;;;;;;;7.70;79.40;;;;;;4971198;28;117787;-88
2020/12/14 09:13:08;;;;;;;;;;;7.70;79.40;;;;;;4952741;28;119905;-87
2020/12/14 09:15:33;;;;;;;;;;;7.70;79.40;;;;;;4952783;28;120562;-87
2020/12/14 09:18:00;;;;;;;;;;;7.70;79.40;;;;;;4970081;28;117613;-87
2020/12/14 09:20:25;;;;;;;;;;;7.70;79.40;;;;;;4970644;28;117705;-87
2020/12/14 09:22:51;;;;;;;;;;;7.70;79.40;;;;;;4952768;28;121364;-87
2020/12/14 09:25:16;;;;;;;;;;;7.70;79.40;;;;;;4952786;28;119573;-87
2020/12/14 09:27:42;;;;;;;;;;;7.70;79.50;;;;;;4953586;28;117542;-87
2020/12/14 09:30:07;;;;;;;;;;;7.70;79.50;;;;;;4953264;28;117884;-87
2020/12/14 09:32:34;;;;;;;;;;;7.70;79.50;;;;;;4969261;28;118467;-87
2020/12/14 09:34:59;;;;;;;;;;;7.70;79.50;;;;;;4952521;28;119574;-87
2020/12/14 09:37:24;;;;;;;;;;;7.70;79.50;;;;;;4953676;28;117552;-87
2020/12/14 09:39:50;;;;;;;;;;;7.70;79.50;;;;;;4953914;28;117820;-87
2020/12/14 09:42:15;;;;;;;;;;;7.70;79.60;;;;;;4952809;28;120436;-87
2020/12/14 09:44:41;;;;;;;;;;;7.70;79.60;;;;;;4952913;28;120595;-87
2020/12/14 09:47:09;;;;;;;;;;;7.70;79.60;;;;;;4953882;28;117491;-87
2020/12/14 09:49:35;;;;;;;;;;;7.70;79.60;;;;;;4954776;28;117914;-87
2020/12/14 09:52:00;;;;;;;;;;;7.70;79.60;;;;;;4953248;28;120138;-87
2020/12/14 09:54:26;;;;;;;;;;;7.70;79.60;;;;;;4969244;28;117455;-87
2020/12/14 09:56:51;;;;;;;;;;;7.70;79.70;;;;;;4954076;28;117316;-87
2020/12/14 09:59:17;;;;;;;;;;;7.70;79.60;;;;;;4954087;28;118005;-87
2020/12/14 10:01:42;;;;;;;;;;;7.70;79.60;;;;;;4970386;28;118702;-87
2020/12/14 10:04:08;;;;;;;;;;;7.70;79.70;;;;;;4953476;28;119969;-87
2020/12/14 10:06:33;;;;;;;;;;;7.70;79.70;;;;;;4970703;28;117541;-88
2020/12/14 10:08:59;;;;;;;;;;;7.70;79.70;;;;;;4954934;28;117857;-90
2020/12/14 10:11:28;;;;;;;;;;;7.70;79.90;;;;;;4954008;28;120716;-90
2020/12/14 10:13:53;;;;;;;;;;;7.70;80.10;;;;;;4953490;28;120672;-90
2020/12/14 10:16:19;;;;;;;;;;;7.70;80.00;;;;;;4954203;28;117291;-90
2020/12/14 10:18:45;;;;;;;;;;;7.70;79.90;;;;;;4954036;28;117846;-90
2020/12/14 10:21:10;;;;;;;;;;;7.70;80.00;;;;;;4968464;28;119976;-90
2020/12/14 10:23:36;;;;;;;;;;;7.70;79.90;;;;;;4952303;28;120628;-90
2020/12/14 10:26:01;;;;;;;;;;;7.70;79.90;;;;;;4952990;28;117524;-90
2020/12/14 10:28:27;;;;;;;;;;;7.70;80.00;;;;;;4953118;28;117965;-90
2020/12/14 10:30:52;;;;;;;;;;;7.70;79.90;;;;;;4968338;28;117499;-90
2020/12/14 10:33:18;;;;;;;;;;;7.70;79.90;;;;;;4951560;28;120628;-89
2020/12/14 10:35:44;;;;;;;;;;;7.70;79.90;;;;;;4952501;28;117950;-90
2020/12/14 10:38:10;;;;;;;;;;;7.70;79.90;;;;;;4969020;28;117460;-90
2020/12/14 10:40:35;;;;;;;;;;;7.70;80.00;;;;;;4951609;28;121120;-90
2020/12/14 10:43:01;;;;;;;;;;;7.70;80.00;;;;;;4967434;28;117489;-90
2020/12/14 10:45:26;;;;;;;;;;;7.60;79.90;;;;;;4952327;28;117836;-90
2020/12/14 10:47:53;;;;;;;;;;;7.70;80.00;;;;;;4953019;28;117749;-90
2020/12/14 10:50:18;;;;;;;;;;;7.70;80.00;;;;;;4951626;28;120375;-90
2020/12/14 10:52:44;;;;;;;;;;;7.70;80.00;;;;;;4951565;28;120238;-90
2020/12/14 10:55:10;;;;;;;;;;;7.70;79.90;;;;;;4952714;28;117464;-90
2020/12/14 10:57:35;;;;;;;;;;;7.70;80.00;;;;;;4969790;28;117353;-90
2020/12/14 11:00:07;;;;;;;;;;;7.70;80.60;;;;;;4952002;28;121842;-90
2020/12/14 11:02:33;;;;;;;;;;;7.70;80.00;;;;;;4969606;28;117389;-90
2020/12/14 11:04:59;;;;;;;;;;;7.70;80.00;;;;;;4969503;28;117815;-90
2020/12/14 11:07:24;;;;;;;;;;;7.70;80.00;;;;;;4954764;28;117736;-90
2020/12/14 11:09:51;;;;;;;;;;;7.70;80.00;;;;;;4955435;28;137921;-90
2020/12/14 11:12:17;;;;;;;;;;;7.70;80.00;;;;;;4952217;28;120298;-90
2020/12/14 11:14:42;;;;;;;;;;;7.70;80.00;;;;;;4953199;28;117828;-90
2020/12/14 11:17:09;;;;;;;;;;;7.70;80.00;;;;;;4954103;28;117864;-89
2020/12/14 11:19:34;;;;;;;;;;;7.70;80.00;;;;;;4951770;28;121121;-90
2020/12/14 11:22:00;;;;;;;;;;;7.70;80.00;;;;;;4952354;28;120251;-89
2020/12/14 11:24:25;;;;;;;;;;;7.70;80.00;;;;;;4952988;28;117791;-90
2020/12/14 11:26:51;;;;;;;;;;;7.70;80.10;;;;;;4952547;28;117802;-90
2020/12/14 11:29:17;;;;;;;;;;;7.70;80.00;;;;;;4951622;28;121344;-90
2020/12/14 11:31:43;;;;;;;;;;;7.70;80.10;;;;;;4950883;28;119017;-90
2020/12/14 11:34:09;;;;;;;;;;;7.70;80.00;;;;;;4968587;28;117517;-90
2020/12/14 11:36:34;;;;;;;;;;;7.70;80.00;;;;;;4968558;28;117853;-90
2020/12/14 11:39:00;;;;;;;;;;;7.70;80.10;;;;;;4967462;28;118359;-90
2020/12/14 11:41:26;;;;;;;;;;;7.70;80.10;;;;;;4950975;28;119393;-90
2020/12/14 11:43:52;;;;;;;;;;;7.70;80.10;;;;;;4968017;28;117428;-90
2020/12/14 11:46:17;;;;;;;;;;;7.70;80.10;;;;;;4951930;28;117245;-90
2020/12/14 11:48:43;;;;;;;;;;;7.70;80.10;;;;;;4950556;28;120846;-90
2020/12/14 11:51:08;;;;;;;;;;;7.70;80.10;;;;;;4967054;28;117691;-90
2020/12/14 11:53:34;;;;;;;;;;;7.70;80.00;;;;;;4951277;28;117547;-90
2020/12/14 11:55:59;;;;;;;;;;;7.70;80.10;;;;;;4951033;28;117455;-90
2020/12/14 11:58:25;;;;;;;;;;;7.70;80.10;;;;;;4950037;28;120181;-90
2020/12/14 12:00:50;;;;;;;;;;;7.70;80.10;;;;;;4967339;28;117985;-90
2020/12/14 12:03:16;;;;;;;;;;;7.70;80.00;;;;;;4951482;28;117496;-90
2020/12/14 12:05:41;;;;;;;;;;;7.70;80.20;;;;;;4951401;28;117944;-90
2020/12/14 12:08:07;;;;;;;;;;;7.70;80.10;;;;;;4950550;28;120597;-90
2020/12/14 12:10:33;;;;;;;;;;;7.70;80.10;;;;;;4967504;28;117965;-90
2020/12/14 12:12:58;;;;;;;;;;;7.70;80.10;;;;;;4968391;28;117552;-90
2020/12/14 12:15:24;;;;;;;;;;;7.70;80.10;;;;;;4968591;28;117378;-90
2020/12/14 12:17:49;;;;;;;;;;;7.70;80.10;;;;;;4951955;28;120291;-90
2020/12/14 12:20:15;;;;;;;;;;;7.70;80.00;;;;;;4950823;28;119258;-90
2020/12/14 12:22:40;;;;;;;;;;;7.70;80.10;;;;;;4952076;28;117536;-90
2020/12/14 12:25:06;;;;;;;;;;;7.70;80.10;;;;;;4952109;28;117856;-90
2020/12/14 12:27:31;;;;;;;;;;;7.70;80.20;;;;;;4951265;28;120235;-90
2020/12/14 12:29:57;;;;;;;;;;;7.70;80.10;;;;;;4951326;28;119386;-90
2020/12/14 12:32:22;;;;;;;;;;;7.70;80.20;;;;;;4956093;28;117495;-90
2020/12/14 12:34:48;;;;;;;;;;;7.70;80.20;;;;;;4955708;28;117957;-90
2020/12/14 12:37:14;;;;;;;;;;;7.70;80.20;;;;;;4954628;28;120781;-90
2020/12/14 12:39:39;;;;;;;;;;;7.70;80.30;;;;;;4954193;28;120004;-90
2020/12/14 12:42:05;;;;;;;;;;;7.70;80.20;;;;;;4955029;28;117591;-90
2020/12/14 12:44:30;;;;;;;;;;;7.70;80.20;;;;;;4954728;28;117515;-90
2020/12/14 12:46:56;;;;;;;;;;;7.70;80.20;;;;;;4953910;28;120317;-90
2020/12/14 12:49:22;;;;;;;;;;;7.70;80.20;;;;;;4953873;28;119525;-90
2020/12/14 12:51:47;;;;;;;;;;;7.70;80.20;;;;;;4970972;28;117486;-90
2020/12/14 12:54:13;;;;;;;;;;;7.70;80.20;;;;;;4971214;28;117931;-90
2020/12/14 12:56:39;;;;;;;;;;;7.70;80.20;;;;;;4969788;28;119945;-90
2020/12/14 12:59:04;;;;;;;;;;;7.70;80.20;;;;;;4952837;28;120599;-90
2020/12/14 13:01:30;;;;;;;;;;;7.70;80.20;;;;;;4954146;28;117592;-90
2020/12/14 13:03:55;;;;;;;;;;;7.70;80.20;;;;;;4954344;28;117856;-90
2020/12/14 13:06:25;;;;;;;;;;;7.70;80.20;;;;;;4952655;28;120068;-90
2020/12/14 13:08:51;;;;;;;;;;;7.70;80.20;;;;;;4968723;28;119272;-90
2020/12/14 13:11:20;;;;;;;;;;;7.70;80.20;;;;;;4953595;28;117403;-90
2020/12/14 13:13:46;;;;;;;;;;;7.70;80.20;;;;;;4970258;28;117834;-90
2020/12/14 13:16:11;;;;;;;;;;;7.70;80.20;;;;;;4952350;28;121228;-90
2020/12/14 13:18:37;;;;;;;;;;;7.70;80.20;;;;;;4952902;28;118959;-90
2020/12/14 13:21:02;;;;;;;;;;;7.70;80.20;;;;;;4954005;28;117581;-90
2020/12/14 13:23:28;;;;;;;;;;;7.70;80.20;;;;;;4954206;28;118227;-90
2020/12/14 13:25:53;;;;;;;;;;;7.70;80.20;;;;;;4953231;28;120826;-90
2020/12/14 13:28:19;;;;;;;;;;;7.70;80.20;;;;;;4953405;28;119381;-90
2020/12/14 13:30:44;;;;;;;;;;;7.70;80.20;;;;;;4970861;28;117341;-90
2020/12/14 13:33:10;;;;;;;;;;;7.70;80.20;;;;;;4954168;28;117569;-90
2020/12/14 13:35:35;;;;;;;;;;;7.60;80.10;;;;;;4953065;28;119825;-90
2020/12/14 13:38:01;;;;;;;;;;;7.70;80.20;;;;;;4953515;28;120384;-90
2020/12/14 13:40:26;;;;;;;;;;;7.70;80.20;;;;;;4954450;28;117437;-89
2020/12/14 13:42:52;;;;;;;;;;;7.70;80.20;;;;;;4955289;28;117593;-90
2020/12/14 13:45:17;;;;;;;;;;;7.70;80.20;;;;;;4954765;28;121073;-89
2020/12/14 13:47:43;;;;;;;;;;;7.60;80.20;;;;;;4955185;28;119426;-90
2020/12/14 13:50:08;;;;;;;;;;;7.70;80.20;;;;;;4955739;28;117552;-90
2020/12/14 13:52:34;;;;;;;;;;;7.70;80.30;;;;;;4955236;28;117597;-90
2020/12/14 13:55:00;;;;;;;;;;;7.70;80.20;;;;;;4952773;28;121783;-90
2020/12/14 13:57:25;;;;;;;;;;;7.70;80.30;;;;;;4952400;28;120573;-90
2020/12/14 13:59:51;;;;;;;;;;;7.60;80.20;;;;;;4953602;28;117333;-90
2020/12/14 14:02:16;;;;;;;;;;;7.60;80.30;;;;;;4953924;28;117892;-90
2020/12/14 14:04:42;;;;;;;;;;;7.60;80.30;;;;;;4952605;28;121208;-90
2020/12/14 14:07:07;;;;;;;;;;;7.60;80.30;;;;;;4952507;28;120319;-90
2020/12/14 14:09:34;;;;;;;;;;;7.60;80.20;;;;;;4953532;28;117530;-93
2020/12/14 14:12:02;;;;;;;;;;;7.60;80.20;;;;;;4953976;28;117704;-90
2020/12/14 14:14:28;;;;;;;;;;;7.60;80.30;;;;;;4952137;28;121622;-90
2020/12/14 14:16:54;;;;;;;;;;;7.60;80.30;;;;;;4951918;28;120647;-89
2020/12/14 14:19:20;;;;;;;;;;;7.60;80.30;;;;;;4969202;28;117671;-89
2020/12/14 14:21:50;;;;;;;;;;;7.60;80.30;;;;;;4952780;28;117305;-90
2020/12/14 14:24:15;;;;;;;;;;;7.60;80.30;;;;;;4968204;28;121388;-90
2020/12/14 14:26:41;;;;;;;;;;;7.60;80.30;;;;;;4968016;28;123033;-90
2020/12/14 14:29:06;;;;;;;;;;;7.60;80.30;;;;;;4952672;28;117547;-89
2020/12/14 14:31:32;;;;;;;;;;;7.60;80.30;;;;;;4953039;28;117911;-90
2020/12/14 14:33:58;;;;;;;;;;;7.60;80.30;;;;;;4951562;28;120185;-90
2020/12/14 14:36:23;;;;;;;;;;;7.60;80.30;;;;;;4951838;28;120065;-90
2020/12/14 14:38:51;;;;;;;;;;;7.60;80.30;;;;;;4969689;28;117345;-90
2020/12/14 14:41:16;;;;;;;;;;;7.70;80.40;;;;;;4970118;28;117369;-90
2020/12/14 14:43:42;;;;;;;;;;;7.70;80.40;;;;;;4952021;28;121223;-89
2020/12/14 14:46:07;;;;;;;;;;;7.60;80.30;;;;;;4951548;28;120966;-90
2020/12/14 14:48:33;;;;;;;;;;;7.60;80.30;;;;;;4953259;28;117597;-90
2020/12/14 14:50:58;;;;;;;;;;;7.70;80.40;;;;;;4969907;28;117324;-90